Time;durP1;ratioP1;P1;durP2;ratioP2;P2;SDS_P1;SDS_P2;PMS_P1;PMS_P2;Temp;Humidity;BMP_temperature;BMP_pressure;BME280_temperature;BME280_humidity;BME280_pressure;Samples;Min_cycle;Max_cycle;Signal;HPM_P1;HPM_P2
2023/02/17 00:00:30;;;;;;;15.23;8.48;;;;;;;4.28;65.65;96999.31;2098278;28;20036;-78
2023/02/17 00:01:32;;;;;;;16.45;7.07;;;;;;;4.27;65.91;97008.72;2107261;28;20032;-78
2023/02/17 00:02:33;;;;;;;14.55;7.15;;;;;;;4.39;64.97;96992.38;2098308;28;20040;-78
2023/02/17 00:03:34;;;;;;;13.10;6.40;;;;;;;4.51;64.58;97006.84;2090282;28;20500;-78
2023/02/17 00:04:36;;;;;;;12.77;6.53;;;;;;;4.51;65.22;97002.56;2098294;28;20047;-77
2023/02/17 00:05:38;;;;;;;12.80;7.07;;;;;;;4.55;65.20;97013.69;2107280;28;20066;-78
2023/02/17 00:06:39;;;;;;;13.80;7.07;;;;;;;4.45;65.54;96989.75;2098273;28;20047;-78
2023/02/17 00:07:40;;;;;;;12.80;6.72;;;;;;;4.54;65.16;97007.69;2090062;28;20029;-77
2023/02/17 00:08:41;;;;;;;14.45;6.95;;;;;;;4.52;65.62;97001.72;2098462;28;20036;-76
2023/02/17 00:09:42;;;;;;;13.10;6.57;;;;;;;4.56;65.01;97003.38;2098232;28;20059;-77
2023/02/17 00:10:43;;;;;;;12.77;6.60;;;;;;;4.68;64.97;97007.59;2098284;28;20055;-77
2023/02/17 00:11:45;;;;;;;13.52;7.03;;;;;;;4.68;64.47;97011.88;2107212;28;20150;-77
2023/02/17 00:12:46;;;;;;;15.77;7.45;;;;;;;4.79;64.08;97010.09;2107282;28;20043;-81
2023/02/17 00:13:47;;;;;;;11.15;6.50;;;;;;;4.75;65.09;97005.81;2107231;28;20538;-81
2023/02/17 00:14:48;;;;;;;12.48;6.60;;;;;;;4.73;64.95;97013.56;2107471;28;20048;-80
2023/02/17 00:15:49;;;;;;;12.68;7.43;;;;;;;4.78;64.95;97009.22;2107272;28;20032;-81
2023/02/17 00:16:50;;;;;;;16.75;7.00;;;;;;;4.81;64.86;97005.75;2107325;28;20044;-80
2023/02/17 00:17:51;;;;;;;10.77;6.43;;;;;;;4.85;65.14;97002.31;2107200;28;20028;-79
2023/02/17 00:18:54;;;;;;;11.77;6.63;;;;;;;4.82;64.22;96998.03;2107223;28;20055;-79
2023/02/17 00:19:55;;;;;;;11.65;6.35;;;;;;;4.81;64.81;97005.75;2106219;28;20052;-79
2023/02/17 00:20:56;;;;;;;15.10;7.50;;;;;;;4.80;64.77;97004.06;2107321;28;20048;-79
2023/02/17 00:21:59;;;;;;;12.57;7.50;;;;;;;4.80;64.20;96994.63;2107159;28;20036;-79
2023/02/17 00:23:00;;;;;;;12.40;7.20;;;;;;;4.96;64.25;96991.91;2107307;28;20043;-79
2023/02/17 00:24:01;;;;;;;14.85;7.40;;;;;;;5.00;64.04;96997.03;2097637;28;20048;-79
2023/02/17 00:25:02;;;;;;;16.88;7.32;;;;;;;5.01;64.53;97003.88;2098081;28;20033;-79
2023/02/17 00:26:05;;;;;;;11.88;7.25;;;;;;;5.02;65.50;97004.72;2107075;28;20051;-79
2023/02/17 00:27:06;;;;;;;16.50;7.45;;;;;;;5.04;64.92;97000.41;2098372;28;20036;-79
2023/02/17 00:28:07;;;;;;;15.43;7.28;;;;;;;5.03;64.53;96999.56;2098110;28;20040;-80
2023/02/17 00:29:08;;;;;;;12.02;6.70;;;;;;;5.03;65.21;97002.16;2107097;28;20044;-80
2023/02/17 00:30:09;;;;;;;13.02;7.50;;;;;;;5.05;64.61;97004.69;2107130;28;20340;-79
2023/02/17 00:31:13;;;;;;;14.02;7.40;;;;;;;5.07;64.98;97003.81;2107024;28;20043;-79
2023/02/17 00:32:15;;;;;;;15.45;7.38;;;;;;;5.08;64.63;97004.69;2098206;28;20048;-79
2023/02/17 00:33:16;;;;;;;16.45;6.75;;;;;;;5.12;64.22;97000.34;2089806;28;20057;-79
2023/02/17 00:34:17;;;;;;;12.98;7.03;;;;;;;5.13;63.66;96995.16;2089715;28;20052;-79
2023/02/17 00:35:18;;;;;;;14.27;7.57;;;;;;;5.18;63.75;96997.72;2081385;28;20361;-79
2023/02/17 00:36:20;;;;;;;16.60;8.00;;;;;;;5.21;63.05;97001.13;2089309;28;20044;-80
2023/02/17 00:37:21;;;;;;;12.73;6.82;;;;;;;5.24;63.27;97000.25;2098142;28;20040;-79
2023/02/17 00:38:22;;;;;;;18.40;6.40;;;;;;;5.23;63.96;97001.09;2098104;28;20381;-79
2023/02/17 00:39:23;;;;;;;15.82;7.18;;;;;;;5.25;64.57;97004.50;2097984;28;20040;-80
2023/02/17 00:40:24;;;;;;;15.18;7.25;;;;;;;5.24;64.33;97000.25;2106971;28;20039;-79
2023/02/17 00:41:26;;;;;;;15.57;6.63;;;;;;;5.27;64.29;97002.78;2097942;28;20487;-79
2023/02/17 00:42:27;;;;;;;15.90;6.97;;;;;;;5.25;64.11;96997.63;2089793;28;20488;-79
2023/02/17 00:43:28;;;;;;;11.38;6.95;;;;;;;5.29;63.95;97003.59;2097907;28;20025;-79
2023/02/17 00:44:29;;;;;;;13.75;7.75;;;;;;;5.29;64.11;97003.59;2098213;28;20036;-79
2023/02/17 00:45:30;;;;;;;13.48;7.40;;;;;;;5.27;63.99;97001.06;2089908;28;20033;-80
2023/02/17 00:46:31;;;;;;;11.65;6.80;;;;;;;5.28;63.91;97007.06;2097972;28;20044;-79
2023/02/17 00:47:32;;;;;;;12.07;6.40;;;;;;;5.27;63.28;97002.78;2107374;28;20490;-79
2023/02/17 00:48:33;;;;;;;14.18;7.35;;;;;;;5.25;63.91;96995.06;2107310;28;20387;-78
2023/02/17 00:49:34;;;;;;;14.02;7.05;;;;;;;5.25;63.49;96992.47;2100752;28;20040;-79
2023/02/17 00:50:35;;;;;;;12.77;6.90;;;;;;;5.29;63.78;96999.31;2089731;28;20488;-79
2023/02/17 00:51:39;;;;;;;13.63;7.22;;;;;;;5.31;63.63;96994.13;2089942;28;20049;-79
2023/02/17 00:52:40;;;;;;;12.88;7.03;;;;;;;5.31;63.67;96996.72;2097237;28;20419;-80
2023/02/17 00:53:41;;;;;;;14.75;8.07;;;;;;;5.32;63.06;96998.44;2106893;28;20047;-79
2023/02/17 00:54:42;;;;;;;14.35;7.85;;;;;;;5.35;63.34;96989.81;2106889;28;20044;-79
2023/02/17 00:55:44;;;;;;;13.88;7.35;;;;;;;5.31;63.81;96991.56;2106894;28;20039;-79
2023/02/17 00:56:45;;;;;;;17.52;7.72;;;;;;;5.35;63.57;96995.81;2097789;28;20503;-79
2023/02/17 00:57:46;;;;;;;16.75;7.63;;;;;;;5.37;63.09;96995.78;2097990;28;20084;-80
2023/02/17 00:58:47;;;;;;;12.80;7.90;;;;;;;5.36;63.00;96994.94;2106680;28;20066;-79
2023/02/17 00:59:51;;;;;;;17.73;8.65;;;;;;;5.37;62.94;97000.94;2106928;28;20497;-79
2023/02/17 01:00:55;;;;;;;15.73;8.23;;;;;;;5.38;63.60;96995.78;2106227;28;20063;-79
2023/02/17 01:01:57;;;;;;;14.40;8.05;;;;;;;5.38;63.26;96993.22;2106848;28;20349;-79
2023/02/17 01:02:58;;;;;;;15.35;8.32;;;;;;;5.36;62.95;96994.94;2107070;28;20023;-80
2023/02/17 01:03:59;;;;;;;14.82;7.68;;;;;;;5.37;63.13;97000.94;2106774;28;20047;-80
2023/02/17 01:05:00;;;;;;;16.10;7.68;;;;;;;5.32;63.70;96993.28;2097845;28;20419;-80
2023/02/17 01:06:08;;;;;;;14.77;7.65;;;;;;;5.38;63.70;96997.50;2089748;28;20108;-79
2023/02/17 01:07:09;;;;;;;17.63;7.65;;;;;;;5.43;63.34;96995.75;2098780;28;20052;-79
2023/02/17 01:08:12;;;;;;;13.10;6.90;;;;;;;5.41;62.79;96992.31;2097714;28;20045;-80
2023/02/17 01:09:13;;;;;;;13.85;6.88;;;;;;;5.52;63.05;97001.63;2097969;28;20138;-80
2023/02/17 01:10:14;;;;;;;13.77;7.00;;;;;;;5.53;62.79;96995.63;2097677;28;20044;-80
2023/02/17 01:11:19;;;;;;;12.23;7.05;;;;;;;5.50;63.28;96982.75;2089539;28;20120;-79
2023/02/17 01:12:20;;;;;;;11.18;6.68;;;;;;;5.56;62.76;96988.72;2090919;28;20378;-79
2023/02/17 01:13:21;;;;;;;9.93;5.85;;;;;;;5.66;62.66;96998.03;2096392;28;20044;-79
2023/02/17 01:14:23;;;;;;;11.50;6.68;;;;;;;5.66;62.38;96985.16;2104614;28;20044;-79
2023/02/17 01:15:24;;;;;;;12.48;6.90;;;;;;;5.71;62.33;96991.97;2096960;28;20112;-78
2023/02/17 01:16:32;;;;;;;16.08;7.57;;;;;;;5.63;62.65;96972.31;2098847;28;20043;-79
2023/02/17 01:17:33;;;;;;;13.85;6.85;;;;;;;5.75;62.23;96997.94;2098018;28;20040;-79
2023/02/17 01:18:34;;;;;;;13.95;6.72;;;;;;;5.75;62.28;97000.53;2089396;28;20053;-79
2023/02/17 01:19:35;;;;;;;13.27;7.05;;;;;;;5.76;63.17;97004.78;2089361;28;20472;-79
2023/02/17 01:20:37;;;;;;;12.52;7.03;;;;;;;5.75;62.58;96998.78;2089689;28;20033;-79
2023/02/17 01:21:38;;;;;;;11.20;6.75;;;;;;;5.77;62.29;96998.75;2081324;28;20049;-79
2023/02/17 01:22:39;;;;;;;11.80;6.50;;;;;;;5.83;62.63;96997.84;2089601;28;20041;-80
2023/02/17 01:23:41;;;;;;;14.98;7.15;;;;;;;5.86;62.20;96995.22;2106693;28;20051;-80
2023/02/17 01:24:42;;;;;;;12.85;6.47;;;;;;;5.90;61.96;96994.31;2097628;28;20048;-79
2023/02/17 01:25:44;;;;;;;13.68;7.03;;;;;;;5.91;61.72;96983.16;2097708;28;20425;-80
2023/02/17 01:26:45;;;;;;;10.65;5.95;;;;;;;6.03;61.84;96995.03;2097798;28;20044;-79
2023/02/17 01:27:46;;;;;;;14.02;6.65;;;;;;;6.08;61.29;96994.09;2097823;28;20052;-80
2023/02/17 01:28:48;;;;;;;11.73;6.25;;;;;;;6.11;61.48;96995.78;2089306;28;20416;-79
2023/02/17 01:29:49;;;;;;;14.43;6.32;;;;;;;6.20;60.64;96995.66;2097750;28;20051;-79
2023/02/17 01:30:50;;;;;;;12.80;6.28;;;;;;;6.34;60.25;96995.47;2106593;28;20047;-79
2023/02/17 01:31:51;;;;;;;15.70;6.10;;;;;;;6.51;59.84;96984.91;2106623;28;20395;-80
2023/02/17 01:32:52;;;;;;;11.73;6.20;;;;;;;6.76;59.10;96993.97;2097754;28;20047;-79
2023/02/17 01:33:57;;;;;;;14.75;6.07;;;;;;;6.99;57.33;96996.16;2089512;28;20045;-79
2023/02/17 01:34:58;;;;;;;14.32;6.03;;;;;;;7.13;57.40;96995.91;2089506;28;20448;-79
2023/02/17 01:36:06;;;;;;;15.23;6.30;;;;;;;7.24;56.61;96994.00;2097613;28;20036;-79
2023/02/17 01:37:07;;;;;;;11.55;6.47;;;;;;;7.31;56.37;97005.06;2097769;28;20052;-78
2023/02/17 01:38:10;;;;;;;11.98;5.50;;;;;;;7.45;55.96;96999.63;2089813;28;20045;-81
2023/02/17 01:39:14;;;;;;;10.32;5.88;;;;;;;7.43;56.25;96991.06;2098740;28;20051;-80
2023/02/17 01:40:16;;;;;;;14.13;6.90;;;;;;;7.47;55.90;96995.28;2106576;28;20499;-80
2023/02/17 01:41:18;;;;;;;11.50;5.55;;;;;;;7.45;55.74;96981.53;2107258;28;20392;-79
2023/02/17 01:42:19;;;;;;;11.38;6.68;;;;;;;7.53;55.96;96999.50;2097696;28;20040;-80
2023/02/17 01:43:22;;;;;;;9.48;5.40;;;;;;;7.38;55.86;96967.06;2089899;28;20052;-79
2023/02/17 01:44:24;;;;;;;12.13;5.68;;;;;;;7.49;56.26;96991.81;2104998;28;20043;-78
2023/02/17 01:45:36;;;;;;;12.27;5.70;;;;;;;7.41;55.92;96982.50;2096327;28;20055;-78
2023/02/17 01:46:38;;;;;;;12.55;6.88;;;;;;;7.36;56.47;96982.56;2098073;28;20037;-78
2023/02/17 01:47:39;;;;;;;11.73;5.68;;;;;;;7.41;56.53;96978.19;2106616;28;20542;-79
2023/02/17 01:48:45;;;;;;;10.68;6.18;;;;;;;7.39;56.60;96984.25;2097012;28;20044;-79
2023/02/17 01:49:46;;;;;;;12.13;6.32;;;;;;;7.26;56.99;96970.69;2082044;28;20037;-79
2023/02/17 01:51:02;;;;;;;11.90;6.88;;;;;;;7.33;57.88;96989.53;2081766;28;20643;-79
2023/02/17 01:52:03;;;;;;;12.85;6.28;;;;;;;7.28;57.67;96987.88;2081137;28;20056;-78
2023/02/17 01:53:04;;;;;;;11.82;5.68;;;;;;;7.20;57.83;96976.00;2082332;28;20048;-78
2023/02/17 01:54:11;;;;;;;9.63;5.40;;;;;;;7.17;58.86;96984.66;2097779;28;20044;-79
2023/02/17 01:55:15;;;;;;;12.20;5.72;;;;;;;7.22;58.66;96982.00;2081908;28;20496;-79
2023/02/17 01:56:16;;;;;;;10.40;5.57;;;;;;;7.17;58.77;96971.72;2065353;28;20403;-79
2023/02/17 01:57:18;;;;;;;12.20;6.28;;;;;;;7.15;59.04;96980.38;2056882;28;20050;-78
2023/02/17 01:58:20;;;;;;;13.05;6.15;;;;;;;7.14;59.21;96973.53;2073389;28;20037;-78
2023/02/17 01:59:21;;;;;;;10.38;6.00;;;;;;;7.10;58.99;96958.94;2089081;28;20128;-80
2023/02/17 02:00:22;;;;;;;13.32;7.07;;;;;;;7.05;59.24;96967.63;2080953;28;20041;-78
2023/02/17 02:01:27;;;;;;;13.23;5.93;;;;;;;7.09;59.21;96963.28;2073228;28;20045;-79
2023/02/17 02:02:30;;;;;;;12.30;6.28;;;;;;;7.07;59.04;96967.59;2074416;28;20501;-79
2023/02/17 02:03:32;;;;;;;11.73;5.97;;;;;;;7.02;59.57;96962.50;2097842;28;20045;-80
2023/02/17 02:04:35;;;;;;;13.73;6.20;;;;;;;6.97;59.42;96958.31;2089120;28;20033;-79
2023/02/17 02:05:37;;;;;;;9.25;5.50;;;;;;;6.97;59.66;96968.63;2056917;28;20051;-79
2023/02/17 02:06:38;;;;;;;9.00;5.25;;;;;;;6.99;59.47;96962.56;2057381;28;20043;-79
2023/02/17 02:07:40;;;;;;;15.63;6.25;;;;;;;6.93;60.11;96964.44;2089260;28;20413;-78
2023/02/17 02:08:55;;;;;;;10.75;5.38;;;;;;;6.90;60.16;96962.75;2089109;28;20040;-78
2023/02/17 02:09:56;;;;;;;11.13;5.88;;;;;;;7.01;59.59;96970.31;2084398;28;20045;-77
2023/02/17 02:10:57;;;;;;;10.98;5.40;;;;;;;6.95;60.24;96967.81;2097904;28;20040;-78
2023/02/17 02:12:01;;;;;;;11.45;5.30;;;;;;;6.96;59.99;96961.78;2097483;28;20175;-78
2023/02/17 02:13:06;;;;;;;11.30;5.05;;;;;;;7.01;59.67;96952.22;2089734;28;20507;-78
2023/02/17 02:14:07;;;;;;;9.57;5.50;;;;;;;7.06;59.78;96965.91;2089251;28;20041;-78
2023/02/17 02:15:12;;;;;;;10.98;5.78;;;;;;;7.11;59.77;96970.97;2081154;28;20042;-79
2023/02/17 02:16:40;;;;;;;11.88;5.68;;;;;;;7.02;60.17;96946.19;2082167;28;20041;-79
2023/02/17 02:18:12;;;;;;;11.93;5.30;;;;;;;7.12;59.79;96952.88;2092962;28;20044;-80
2023/02/17 02:19:34;;;;;;;9.25;4.90;;;;;;;7.18;59.61;96947.59;2095401;28;20040;-79
2023/02/17 02:21:12;;;;;;;8.35;4.75;;;;;;;7.21;59.70;96944.94;2092026;28;20040;-80
2023/02/17 02:22:37;;;;;;;10.50;5.30;;;;;;;7.22;59.44;96946.66;2103014;28;20036;-80
2023/02/17 02:24:05;;;;;;;10.63;5.50;;;;;;;7.24;58.92;96939.75;2072312;28;20041;-79
2023/02/17 02:25:39;;;;;;;9.23;4.85;;;;;;;7.22;59.41;96951.00;2095816;28;20041;-79
2023/02/17 02:26:58;;;;;;;10.13;5.10;;;;;;;7.17;59.52;96945.06;2085354;28;20044;-79
2023/02/17 02:28:36;;;;;;;13.45;5.60;;;;;;;7.27;58.77;96941.38;2089324;28;20119;-78
2023/02/17 02:29:51;;;;;;;9.50;4.63;;;;;;;7.32;58.39;96933.56;2093696;28;20048;-78
2023/02/17 02:31:31;;;;;;;7.95;4.70;;;;;;;7.37;58.15;96939.50;2091075;28;20044;-78
2023/02/17 02:32:38;;;;;;;7.00;4.20;;;;;;;7.24;58.34;96921.66;2074520;28;20046;-79
2023/02/17 02:33:46;;;;;;;9.88;4.65;;;;;;;7.24;58.77;96926.84;2089953;28;20044;-79
2023/02/17 02:34:54;;;;;;;8.93;4.72;;;;;;;7.15;58.79;96929.56;2090125;28;20064;-79
2023/02/17 02:36:02;;;;;;;10.70;5.32;;;;;;;7.11;58.73;96916.72;2074321;28;20046;-79
2023/02/17 02:37:11;;;;;;;10.57;4.88;;;;;;;7.14;59.04;96930.47;2067171;28;20041;-79
2023/02/17 02:38:31;;;;;;;10.27;4.85;;;;;;;7.04;59.21;96919.44;2065970;28;20049;-79
2023/02/17 02:39:34;;;;;;;9.75;4.55;;;;;;;6.98;59.14;96911.81;2064157;28;20050;-79
2023/02/17 02:40:38;;;;;;;9.10;4.60;;;;;;;7.07;58.95;96913.38;2067639;28;20047;-77
2023/02/17 02:41:41;;;;;;;11.18;5.35;;;;;;;7.13;58.91;96925.31;2073468;28;20493;-78
2023/02/17 02:42:42;;;;;;;10.68;5.47;;;;;;;7.15;58.54;96927.00;2072892;28;20501;-78
2023/02/17 02:43:43;;;;;;;8.98;4.75;;;;;;;7.15;58.14;96924.41;2064799;28;20046;-78
2023/02/17 02:44:44;;;;;;;8.93;4.65;;;;;;;7.12;58.82;96924.47;2080794;28;20048;-78
2023/02/17 02:45:47;;;;;;;7.45;4.63;;;;;;;7.16;58.75;96923.50;2088983;28;20547;-78
2023/02/17 02:46:58;;;;;;;9.85;4.45;;;;;;;7.19;58.40;96925.19;2097455;28;20051;-78
2023/02/17 02:47:59;;;;;;;8.10;4.15;;;;;;;7.24;57.76;96919.09;2097319;28;20045;-78
2023/02/17 02:49:02;;;;;;;11.18;4.97;;;;;;;7.19;57.46;96907.97;2097205;28;20053;-78
2023/02/17 02:50:03;;;;;;;9.18;4.55;;;;;;;7.24;57.92;96925.94;2064314;28;20090;-78
2023/02/17 02:51:26;;;;;;;7.68;4.00;;;;;;;7.26;57.61;96913.88;2064780;28;20043;-77
2023/02/17 02:53:04;;;;;;;6.78;3.95;;;;;;;7.35;57.02;96915.41;2084008;28;20075;-79
2023/02/17 02:54:17;;;;;;;7.95;4.35;;;;;;;7.38;56.79;96912.78;2084199;28;20412;-78
2023/02/17 02:55:26;;;;;;;8.38;4.30;;;;;;;7.39;56.69;96914.47;2075605;28;20042;-78
2023/02/17 02:57:03;;;;;;;8.40;4.32;;;;;;;7.36;56.75;96915.38;2075196;28;20494;-77
2023/02/17 02:58:12;;;;;;;8.52;4.60;;;;;;;7.26;57.18;96909.53;2080530;28;20057;-78
2023/02/17 02:59:44;;;;;;;9.10;4.47;;;;;;;7.34;56.49;96913.72;2074518;28;20061;-77
2023/02/17 03:01:03;;;;;;;9.55;4.70;;;;;;;7.31;56.51;96912.03;2090620;28;20056;-77
2023/02/17 03:02:15;;;;;;;7.97;4.03;;;;;;;7.29;56.53;96913.81;2101829;28;20472;-79
2023/02/17 03:03:41;;;;;;;9.68;4.15;;;;;;;7.38;56.13;96910.22;2107826;28;20040;-78
2023/02/17 03:04:56;;;;;;;10.10;4.65;;;;;;;7.39;56.22;96909.31;2073719;28;20097;-78
2023/02/17 03:06:30;;;;;;;8.48;4.47;;;;;;;7.46;55.33;96900.56;2098704;28;20370;-77
2023/02/17 03:07:56;;;;;;;7.88;4.38;;;;;;;7.51;55.13;96901.28;2094728;28;20051;-78
2023/02/17 03:09:04;;;;;;;11.02;4.47;;;;;;;7.61;54.42;96909.72;2094490;28;20052;-77
2023/02/17 03:10:05;;;;;;;6.95;4.07;;;;;;;7.73;53.81;96899.13;2090569;28;20052;-80
2023/02/17 03:11:09;;;;;;;10.13;4.47;;;;;;;7.78;53.60;96893.84;2091992;28;20167;-82
2023/02/17 03:12:10;;;;;;;12.10;4.50;;;;;;;7.79;53.61;96901.56;2091044;28;20497;-80
2023/02/17 03:13:11;;;;;;;8.73;5.18;;;;;;;7.79;53.34;96903.31;2090632;28;20045;-81
2023/02/17 03:14:14;;;;;;;8.13;4.57;;;;;;;7.80;53.05;96892.06;2098919;28;20051;-79
2023/02/17 03:15:23;;;;;;;9.70;4.85;;;;;;;7.83;53.57;96899.75;2090637;28;20045;-79
2023/02/17 03:16:24;;;;;;;10.20;4.70;;;;;;;7.82;53.30;96904.09;2075239;28;20401;-75
2023/02/17 03:17:25;;;;;;;8.82;4.93;;;;;;;7.79;53.66;96900.72;2074771;28;20044;-75
2023/02/17 03:18:26;;;;;;;8.30;4.60;;;;;;;7.80;53.40;96899.84;2093836;28;20374;-79
2023/02/17 03:19:27;;;;;;;8.63;5.07;;;;;;;7.78;53.64;96899.00;2098006;28;20056;-77
2023/02/17 03:20:53;;;;;;;10.10;5.20;;;;;;;7.77;53.41;96899.91;2091489;28;20052;-78
2023/02/17 03:22:08;;;;;;;8.70;4.90;;;;;;;7.69;53.65;96893.16;2089098;28;20483;-78
2023/02/17 03:23:09;;;;;;;11.05;5.60;;;;;;;7.70;53.66;96894.88;2090338;28;20041;-79
2023/02/17 03:24:11;;;;;;;8.20;4.65;;;;;;;7.74;52.94;96887.88;2090515;28;20456;-78
2023/02/17 03:25:12;;;;;;;11.13;4.50;;;;;;;7.76;52.99;96899.06;2098625;28;20044;-79
2023/02/17 03:26:13;;;;;;;9.07;5.13;;;;;;;7.72;52.90;96887.94;2098584;28;20051;-79
2023/02/17 03:27:14;;;;;;;10.77;5.30;;;;;;;7.74;53.11;96890.47;2090256;28;20510;-78
2023/02/17 03:28:15;;;;;;;7.88;4.80;;;;;;;7.75;52.65;96892.16;2090470;28;20056;-77
2023/02/17 03:29:16;;;;;;;7.55;4.70;;;;;;;7.73;52.79;96888.78;2090250;28;20178;-79
2023/02/17 03:30:19;;;;;;;9.85;4.88;;;;;;;7.69;53.45;96884.56;2090407;28;20100;-78
2023/02/17 03:31:20;;;;;;;9.27;5.05;;;;;;;7.68;53.29;96890.63;2098627;28;20039;-78
2023/02/17 03:32:21;;;;;;;8.07;4.93;;;;;;;7.66;53.21;96887.22;2098606;28;20041;-78
2023/02/17 03:33:22;;;;;;;9.57;5.10;;;;;;;7.64;53.20;96884.66;2090241;28;20068;-78
2023/02/17 03:34:23;;;;;;;8.90;4.70;;;;;;;7.63;52.92;96888.13;2098751;28;20024;-79
2023/02/17 03:35:24;;;;;;;9.15;5.25;;;;;;;7.62;52.70;96883.84;2109140;28;20032;-77
2023/02/17 03:36:26;;;;;;;12.38;5.10;;;;;;;7.63;52.76;96884.69;2099237;28;20492;-77
2023/02/17 03:37:27;;;;;;;10.60;5.10;;;;;;;7.63;53.04;96890.72;2090502;28;20037;-75
2023/02/17 03:38:28;;;;;;;11.30;5.55;;;;;;;7.60;54.03;96889.94;2098719;28;20040;-75
2023/02/17 03:39:30;;;;;;;8.90;5.00;;;;;;;7.62;53.00;96889.00;2107371;28;20040;-76
2023/02/17 03:40:31;;;;;;;9.30;5.43;;;;;;;7.59;53.59;96881.34;2107511;28;20062;-76
2023/02/17 03:41:32;;;;;;;11.23;5.00;;;;;;;7.61;53.04;96883.88;2107449;28;20047;-76
2023/02/17 03:42:33;;;;;;;10.70;5.63;;;;;;;7.60;53.41;96883.03;2107423;28;20427;-76
2023/02/17 03:43:34;;;;;;;8.85;4.90;;;;;;;7.58;53.71;96881.34;2107413;28;20031;-77
2023/02/17 03:44:35;;;;;;;8.90;4.93;;;;;;;7.60;53.52;96882.19;2107373;28;20127;-76
2023/02/17 03:45:37;;;;;;;10.38;4.80;;;;;;;7.61;53.17;96879.53;2107403;28;20095;-76
2023/02/17 03:46:39;;;;;;;12.77;5.20;;;;;;;7.60;53.55;96875.28;2107612;28;20039;-75
2023/02/17 03:47:40;;;;;;;10.07;5.22;;;;;;;7.59;53.85;96886.50;2107328;28;20395;-76
2023/02/17 03:48:41;;;;;;;7.70;4.70;;;;;;;7.59;53.52;96878.75;2107488;28;20044;-79
2023/02/17 03:49:42;;;;;;;8.77;4.95;;;;;;;7.60;53.82;96883.03;2107552;28;20039;-79
2023/02/17 03:50:43;;;;;;;8.40;5.28;;;;;;;7.62;53.49;96883.84;2107334;28;20372;-79
2023/02/17 03:51:44;;;;;;;10.43;4.85;;;;;;;7.67;53.04;96884.59;2107366;28;20403;-78
2023/02/17 03:52:45;;;;;;;11.15;4.60;;;;;;;7.67;53.52;96876.84;2107348;28;20047;-77
2023/02/17 03:53:47;;;;;;;8.00;4.60;;;;;;;7.62;53.37;96881.25;2107339;28;20043;-76
2023/02/17 03:54:48;;;;;;;10.18;4.95;;;;;;;7.67;53.44;96873.38;2107407;28;20040;-77
2023/02/17 03:55:49;;;;;;;9.00;4.60;;;;;;;7.64;53.41;96874.31;2107352;28;20048;-77
2023/02/17 03:56:50;;;;;;;6.85;4.22;;;;;;;7.63;53.53;96882.94;2107245;28;20040;-77
2023/02/17 03:57:51;;;;;;;9.18;4.07;;;;;;;7.55;53.24;96861.59;2107328;28;20047;-77
2023/02/17 03:58:52;;;;;;;11.30;5.25;;;;;;;7.68;53.20;96880.28;2097945;28;20048;-79
2023/02/17 03:59:54;;;;;;;10.27;4.43;;;;;;;7.69;53.18;96875.06;2098233;28;20041;-77
2023/02/17 04:00:55;;;;;;;8.07;3.97;;;;;;;7.66;53.58;96882.03;2098336;28;20067;-77
2023/02/17 04:01:56;;;;;;;8.32;4.72;;;;;;;7.67;53.20;96868.22;2098257;28;20538;-77
2023/02/17 04:02:57;;;;;;;7.70;4.43;;;;;;;7.67;53.40;96882.03;2107249;28;20031;-78
2023/02/17 04:03:58;;;;;;;8.90;4.47;;;;;;;7.66;53.43;96875.13;2107353;28;20040;-76
2023/02/17 04:04:59;;;;;;;7.75;4.22;;;;;;;7.64;53.99;96870.88;2107273;28;20055;-76
2023/02/17 04:06:00;;;;;;;6.70;4.30;;;;;;;7.64;53.29;96869.13;2107404;28;20047;-76
2023/02/17 04:07:01;;;;;;;9.45;4.22;;;;;;;7.67;53.86;96869.09;2098502;28;20546;-76
2023/02/17 04:08:03;;;;;;;8.05;4.68;;;;;;;7.64;54.06;96873.47;2098251;28;20044;-76
2023/02/17 04:09:04;;;;;;;9.65;4.00;;;;;;;7.69;53.93;96869.88;2107230;28;20039;-77
2023/02/17 04:10:06;;;;;;;9.60;4.93;;;;;;;7.70;54.05;96874.19;2107215;28;20055;-76
2023/02/17 04:11:07;;;;;;;8.77;4.88;;;;;;;7.69;54.23;96874.22;2097778;28;20051;-76
2023/02/17 04:12:08;;;;;;;8.77;4.28;;;;;;;7.86;53.51;96877.28;2098263;28;20475;-78
2023/02/17 04:13:09;;;;;;;7.75;3.50;;;;;;;7.92;52.95;96869.38;2108738;28;20047;-80
2023/02/17 04:14:10;;;;;;;6.80;3.92;;;;;;;8.07;52.89;96878.53;2107743;28;20046;-81
2023/02/17 04:15:11;;;;;;;9.90;4.47;;;;;;;8.06;52.69;96878.56;2107463;28;20039;-76
2023/02/17 04:16:12;;;;;;;9.57;4.50;;;;;;;8.08;52.81;96879.38;2107295;28;20047;-79
2023/02/17 04:17:14;;;;;;;7.30;4.32;;;;;;;8.08;52.57;96872.47;2107477;28;20376;-79
2023/02/17 04:18:15;;;;;;;10.10;4.93;;;;;;;8.10;52.79;96885.34;2107147;28;20028;-79
2023/02/17 04:19:16;;;;;;;9.82;4.15;;;;;;;8.06;52.95;96878.56;2097971;28;20167;-79
2023/02/17 04:20:17;;;;;;;8.45;4.00;;;;;;;8.08;53.02;96875.06;2098485;28;20036;-79
2023/02/17 04:21:18;;;;;;;8.98;4.15;;;;;;;8.07;53.21;96877.66;2107399;28;20055;-77
2023/02/17 04:22:19;;;;;;;7.80;3.53;;;;;;;8.15;53.09;96878.34;2107194;28;20028;-80
2023/02/17 04:23:20;;;;;;;8.43;4.43;;;;;;;8.12;52.95;96876.66;2107402;28;20027;-79
2023/02/17 04:24:22;;;;;;;7.25;3.78;;;;;;;8.17;52.36;96880.00;2098539;28;20051;-83
2023/02/17 04:25:23;;;;;;;8.45;4.00;;;;;;;8.21;53.02;96879.94;2098540;28;20372;-79
2023/02/17 04:26:24;;;;;;;7.68;4.00;;;;;;;8.17;52.74;96882.59;2107298;28;20036;-79
2023/02/17 04:27:25;;;;;;;7.82;4.22;;;;;;;8.11;53.27;96885.31;2107171;28;20040;-79
2023/02/17 04:28:26;;;;;;;9.48;4.00;;;;;;;8.11;53.45;96877.56;2107078;28;20032;-78
2023/02/17 04:29:27;;;;;;;10.48;4.32;;;;;;;8.16;53.18;96877.47;2107702;28;20040;-80
2023/02/17 04:30:28;;;;;;;8.27;4.20;;;;;;;8.13;53.12;96883.56;2098002;28;20445;-80
2023/02/17 04:31:29;;;;;;;7.80;3.92;;;;;;;8.13;52.73;96883.56;2098253;28;20036;-79
2023/02/17 04:32:30;;;;;;;7.55;4.20;;;;;;;8.13;53.30;96880.97;2107081;28;20024;-80
2023/02/17 04:33:31;;;;;;;8.65;4.00;;;;;;;8.09;53.05;96886.25;2107271;28;20032;-79
2023/02/17 04:34:33;;;;;;;8.07;3.90;;;;;;;8.06;53.92;96876.81;2107083;28;20040;-77
2023/02/17 04:35:34;;;;;;;9.35;4.65;;;;;;;8.03;53.92;96883.81;2098098;28;20048;-77
2023/02/17 04:36:35;;;;;;;9.52;4.28;;;;;;;7.92;53.83;96859.03;2098112;28;20043;-79
2023/02/17 04:37:36;;;;;;;8.85;4.03;;;;;;;8.05;53.70;96879.47;2098042;28;20488;-79
2023/02/17 04:38:37;;;;;;;6.28;3.72;;;;;;;8.07;53.77;96882.84;2098001;28;20130;-79
2023/02/17 04:39:38;;;;;;;8.70;4.10;;;;;;;8.05;53.91;96885.47;2089762;28;20040;-79
2023/02/17 04:40:39;;;;;;;7.43;3.60;;;;;;;8.08;53.23;96877.66;2097988;28;20047;-79
2023/02/17 04:41:40;;;;;;;6.50;3.97;;;;;;;8.11;53.48;96879.31;2107218;28;20051;-80
2023/02/17 04:42:41;;;;;;;6.22;3.53;;;;;;;7.99;53.70;96858.88;2107504;28;20399;-80
2023/02/17 04:43:42;;;;;;;7.88;4.15;;;;;;;8.09;53.80;96883.66;2098092;28;20040;-78
2023/02/17 04:44:44;;;;;;;9.07;4.55;;;;;;;8.04;54.18;96878.59;2097991;28;20042;-80
2023/02/17 04:45:45;;;;;;;9.52;4.15;;;;;;;8.09;53.10;96887.09;2107004;28;20447;-79
2023/02/17 04:46:46;;;;;;;7.13;4.18;;;;;;;8.08;54.40;96880.22;2107068;28;20035;-81
2023/02/17 04:47:47;;;;;;;7.80;3.75;;;;;;;8.00;54.52;96868.38;2107224;28;20047;-80
2023/02/17 04:48:48;;;;;;;8.68;4.45;;;;;;;8.04;54.00;96876.00;2098212;28;20496;-77
2023/02/17 04:49:49;;;;;;;7.53;4.53;;;;;;;8.06;54.48;96886.31;2089707;28;20041;-78
2023/02/17 04:50:50;;;;;;;10.93;4.50;;;;;;;7.97;54.72;96877.03;2098015;28;20063;-80
2023/02/17 04:51:51;;;;;;;7.20;3.92;;;;;;;7.99;54.70;96877.84;2106988;28;20043;-79
2023/02/17 04:52:52;;;;;;;11.25;4.60;;;;;;;8.06;54.22;96868.22;2107091;28;20044;-82
2023/02/17 04:53:53;;;;;;;9.77;4.13;;;;;;;7.99;55.01;96869.22;2107133;28;20036;-79
2023/02/17 04:54:55;;;;;;;9.52;4.07;;;;;;;7.98;54.43;96868.38;2107119;28;20080;-78
2023/02/17 04:55:56;;;;;;;10.88;4.47;;;;;;;7.91;55.19;96861.66;2106910;28;20036;-79
2023/02/17 04:56:57;;;;;;;8.23;4.13;;;;;;;7.89;55.27;96873.78;2106877;28;20036;-79
2023/02/17 04:57:58;;;;;;;8.85;4.38;;;;;;;7.93;55.13;96873.66;2106950;28;20047;-80
2023/02/17 04:58:59;;;;;;;10.10;3.92;;;;;;;7.95;55.31;96873.63;2106951;28;20028;-78
2023/02/17 05:00:00;;;;;;;10.10;3.90;;;;;;;7.90;55.62;96878.06;2107014;28;20047;-79
2023/02/17 05:01:01;;;;;;;10.18;4.32;;;;;;;7.89;56.17;96877.22;2106745;28;20116;-79
2023/02/17 05:02:02;;;;;;;7.13;4.10;;;;;;;8.03;55.82;96873.47;2106991;28;20498;-80
2023/02/17 05:03:04;;;;;;;8.20;4.07;;;;;;;8.09;55.52;96881.06;2098499;28;20037;-80